createdAt,value
2023-06-09T00:02:23.453Z,10.43
2023-06-09T00:04:51.388Z,11.57
2023-06-09T00:07:19.286Z,8.47
2023-06-09T00:09:48.510Z,9.20
2023-06-09T00:12:16.262Z,11.30
2023-06-09T00:14:44.106Z,10.80
2023-06-09T00:17:12.039Z,9.23
2023-06-09T00:19:43.142Z,10.17
2023-06-09T00:22:15.181Z,8.40
2023-06-09T00:24:43.653Z,7.53
2023-06-09T00:27:12.777Z,6.43
2023-06-09T00:29:40.655Z,6.30
2023-06-09T00:32:12.634Z,6.20
2023-06-09T00:34:40.469Z,6.30
2023-06-09T00:37:08.266Z,7.43
2023-06-09T00:39:36.039Z,6.17
2023-06-09T00:42:03.902Z,7.13
2023-06-09T00:44:33.002Z,8.07
2023-06-09T00:47:01.408Z,6.13
2023-06-09T00:49:29.355Z,6.63
2023-06-09T00:51:58.212Z,7.07
2023-06-09T00:54:26.077Z,6.00
2023-06-09T00:56:54.039Z,8.37
2023-06-09T00:59:21.900Z,13.17
2023-06-09T01:01:51.752Z,10.47
2023-06-09T01:04:20.230Z,10.80
2023-06-09T01:06:59.816Z,13.47
2023-06-09T01:09:32.028Z,10.50
2023-06-09T01:12:12.334Z,11.37
2023-06-09T01:14:50.510Z,12.93
2023-06-09T01:17:21.854Z,10.53
2023-06-09T01:19:51.832Z,15.17
2023-06-09T01:22:30.770Z,14.80
2023-06-09T01:25:07.710Z,19.33
2023-06-09T01:27:40.728Z,16.73
2023-06-09T01:30:11.451Z,13.73
2023-06-09T01:32:41.220Z,21.03
2023-06-09T01:35:10.868Z,21.40
2023-06-09T01:37:39.774Z,21.20
2023-06-09T01:40:09.817Z,19.53
2023-06-09T01:42:38.988Z,23.20
2023-06-09T01:45:07.673Z,19.73
2023-06-09T01:47:35.767Z,21.33
2023-06-09T01:50:05.559Z,22.63
2023-06-09T01:52:42.494Z,18.53
2023-06-09T01:55:15.220Z,17.50
2023-06-09T01:57:51.594Z,18.87
2023-06-09T02:00:21.469Z,21.37
2023-06-09T02:02:51.338Z,21.20
2023-06-09T02:05:21.794Z,19.73
2023-06-09T02:07:50.906Z,23.87
2023-06-09T02:10:20.039Z,20.13
2023-06-09T02:12:49.154Z,20.13
2023-06-09T02:15:16.972Z,20.13
2023-06-09T02:17:44.770Z,21.83
2023-06-09T02:20:13.323Z,17.43
2023-06-09T02:22:41.291Z,18.43
2023-06-09T02:25:11.037Z,20.80
2023-06-09T02:27:39.100Z,16.70
2023-06-09T02:30:09.755Z,17.20
2023-06-09T02:32:37.599Z,18.63
2023-06-09T02:35:06.379Z,13.83
2023-06-09T02:37:34.399Z,15.47
2023-06-09T02:40:02.139Z,19.40
2023-06-09T02:42:29.893Z,17.33
2023-06-09T02:44:57.631Z,16.33
2023-06-09T02:47:26.875Z,17.50
2023-06-09T02:49:54.688Z,17.63
2023-06-09T02:52:22.666Z,19.50
2023-06-09T02:54:50.431Z,14.93
2023-06-09T02:57:18.233Z,17.70
2023-06-09T02:59:46.196Z,17.97
2023-06-09T03:02:14.441Z,19.00
2023-06-09T03:04:43.930Z,17.37
2023-06-09T03:07:14.721Z,15.17
2023-06-09T03:09:42.696Z,16.10
2023-06-09T03:12:11.567Z,22.10
2023-06-09T03:14:39.393Z,17.57
2023-06-09T03:17:07.729Z,18.47
2023-06-09T03:19:35.790Z,15.07
2023-06-09T03:22:05.303Z,15.50
2023-06-09T03:24:34.677Z,14.70
2023-06-09T03:27:02.531Z,14.67
2023-06-09T03:29:30.701Z,15.30
2023-06-09T03:31:58.481Z,15.43
2023-06-09T03:34:26.476Z,88.23
2023-06-09T03:36:54.246Z,16.50
2023-06-09T03:39:24.077Z,15.60
2023-06-09T03:41:55.187Z,13.50
2023-06-09T03:44:23.328Z,15.10
2023-06-09T03:46:51.086Z,14.77
2023-06-09T03:49:18.896Z,13.70
2023-06-09T03:51:46.666Z,14.53
2023-06-09T03:54:14.454Z,16.07
2023-06-09T03:56:44.147Z,13.17
2023-06-09T03:59:11.925Z,14.73
2023-06-09T04:01:41.824Z,14.90
2023-06-09T04:04:09.715Z,14.67
2023-06-09T04:06:39.057Z,16.87
2023-06-09T04:09:06.856Z,16.23
2023-06-09T04:11:34.647Z,18.40
2023-06-09T04:14:04.241Z,15.00
2023-06-09T04:16:32.062Z,14.93
2023-06-09T04:19:00.445Z,16.27
2023-06-09T04:21:28.306Z,39.00
2023-06-09T04:23:56.191Z,31.40
2023-06-09T04:26:25.164Z,28.83
2023-06-09T04:28:54.663Z,15.60
2023-06-09T04:31:25.310Z,16.37
2023-06-09T04:33:54.997Z,14.37
2023-06-09T04:36:22.863Z,15.13
2023-06-09T04:38:50.606Z,14.87
2023-06-09T04:41:18.648Z,18.37
2023-06-09T04:43:46.433Z,12.57
2023-06-09T04:46:14.925Z,13.87
2023-06-09T04:48:45.907Z,14.43
2023-06-09T04:51:13.680Z,14.47
2023-06-09T04:53:41.437Z,11.93
2023-06-09T04:56:10.421Z,13.60
2023-06-09T04:58:39.273Z,13.40
2023-06-09T05:01:07.115Z,18.83
2023-06-09T05:03:35.147Z,17.27
2023-06-09T05:06:04.280Z,17.40
2023-06-09T05:08:34.641Z,16.77
2023-06-09T05:11:02.671Z,14.97
2023-06-09T05:13:30.453Z,18.00
2023-06-09T05:15:58.724Z,20.47
2023-06-09T05:18:27.491Z,18.90
2023-06-09T05:20:55.305Z,14.73
2023-06-09T05:23:24.447Z,16.70
2023-06-09T05:25:52.287Z,19.00
2023-06-09T05:28:20.019Z,16.93
2023-06-09T05:30:47.953Z,19.03
2023-06-09T05:33:15.768Z,18.23
2023-06-09T05:35:43.588Z,20.27
2023-06-09T05:38:11.578Z,19.13
2023-06-09T05:40:40.710Z,16.83
2023-06-09T05:43:08.454Z,18.47
2023-06-09T05:45:36.225Z,19.40
2023-06-09T05:48:04.438Z,17.07
2023-06-09T05:50:32.266Z,16.83
2023-06-09T05:53:00.037Z,16.03
2023-06-09T05:55:27.938Z,15.10
2023-06-09T05:57:57.813Z,12.83
2023-06-09T06:00:30.471Z,16.20
2023-06-09T06:02:58.481Z,16.63
2023-06-09T06:05:26.291Z,19.20
2023-06-09T06:07:54.149Z,13.97
2023-06-09T06:10:21.942Z,11.07
2023-06-09T06:12:49.678Z,10.30
2023-06-09T06:15:20.233Z,14.20
2023-06-09T06:17:48.060Z,11.20
2023-06-09T06:20:16.068Z,9.90
2023-06-09T06:22:44.276Z,11.93
2023-06-09T06:25:14.605Z,8.90
2023-06-09T06:27:45.324Z,11.90
2023-06-09T06:30:15.955Z,9.67
2023-06-09T06:32:52.808Z,14.60
2023-06-09T06:35:28.217Z,10.33
2023-06-09T06:37:56.672Z,12.77
2023-06-09T06:40:24.904Z,8.93
2023-06-09T06:42:52.828Z,7.63
2023-06-09T06:45:21.474Z,9.37
2023-06-09T06:47:50.789Z,8.47
2023-06-09T06:50:20.409Z,8.07
2023-06-09T06:52:49.530Z,10.83
2023-06-09T06:55:17.395Z,11.03
2023-06-09T06:57:45.198Z,10.60
2023-06-09T07:00:15.519Z,9.27
2023-06-09T07:02:47.419Z,9.23
2023-06-09T07:05:16.042Z,10.20
2023-06-09T07:07:46.256Z,9.47
2023-06-09T07:10:14.328Z,10.40
2023-06-09T07:12:42.765Z,8.63
2023-06-09T07:15:11.719Z,6.70
2023-06-09T07:17:39.638Z,8.03
2023-06-09T07:20:09.217Z,7.17
2023-06-09T07:22:41.239Z,8.37
2023-06-09T07:25:11.247Z,6.40
2023-06-09T07:27:38.973Z,6.37
2023-06-09T07:30:09.114Z,5.83
2023-06-09T07:32:38.119Z,7.80
2023-06-09T07:35:06.460Z,7.03
2023-06-09T07:37:34.233Z,6.77
2023-06-09T07:40:13.875Z,9.37
2023-06-09T07:42:47.812Z,7.77
2023-06-09T07:45:15.670Z,7.97
2023-06-09T07:47:45.347Z,7.43
2023-06-09T07:50:13.974Z,8.83
2023-06-09T07:52:41.778Z,7.43
2023-06-09T07:55:14.381Z,8.07
2023-06-09T07:57:44.460Z,6.30
2023-06-09T08:00:15.339Z,6.50
2023-06-09T08:02:44.107Z,8.80
2023-06-09T08:05:12.960Z,6.97
2023-06-09T08:07:40.952Z,11.03
2023-06-09T08:10:09.389Z,9.57
2023-06-09T08:12:38.587Z,7.53
2023-06-09T08:15:07.541Z,7.10
2023-06-09T08:17:37.062Z,7.03
2023-06-09T08:20:06.668Z,8.13
2023-06-09T08:22:35.250Z,6.97
2023-06-09T08:25:03.220Z,6.80
2023-06-09T08:27:31.401Z,7.30
2023-06-09T08:29:59.172Z,7.00
2023-06-09T08:32:27.082Z,10.47
2023-06-09T08:34:56.459Z,7.80
2023-06-09T08:37:26.220Z,6.80
2023-06-09T08:39:55.933Z,8.73
2023-06-09T08:42:26.947Z,8.53
2023-06-09T08:45:03.171Z,6.00
2023-06-09T08:47:33.265Z,7.80
2023-06-09T08:50:03.968Z,6.23
2023-06-09T08:52:32.439Z,6.37
2023-06-09T08:55:01.646Z,6.00
2023-06-09T08:57:30.345Z,6.30
2023-06-09T08:59:58.939Z,7.30
2023-06-09T09:02:26.736Z,6.57
2023-06-09T09:04:54.853Z,6.10
2023-06-09T09:07:24.120Z,6.63
2023-06-09T09:09:51.909Z,6.73
2023-06-09T09:12:19.712Z,8.23
2023-06-09T09:14:48.065Z,6.50
2023-06-09T09:17:17.577Z,5.37
2023-06-09T09:19:48.688Z,7.20
2023-06-09T09:22:16.775Z,5.87
2023-06-09T09:24:48.434Z,5.80
2023-06-09T09:27:20.541Z,5.93
2023-06-09T09:29:48.520Z,5.47
2023-06-09T09:32:17.341Z,6.40
2023-06-09T09:34:46.682Z,6.57
2023-06-09T09:37:17.404Z,6.23
2023-06-09T09:39:53.411Z,6.70
2023-06-09T09:42:22.268Z,5.13
2023-06-09T09:44:52.466Z,5.23
2023-06-09T09:47:21.399Z,8.40
2023-06-09T09:49:54.574Z,5.27
2023-06-09T09:52:26.394Z,5.80
2023-06-09T09:54:56.520Z,5.47
2023-06-09T09:57:25.695Z,5.87
2023-06-09T09:59:54.719Z,6.57
2023-06-09T10:02:25.949Z,6.13
2023-06-09T10:04:55.107Z,5.27
2023-06-09T10:07:23.699Z,8.27
2023-06-09T10:09:53.654Z,6.70
2023-06-09T10:12:24.862Z,8.03
2023-06-09T10:14:55.408Z,6.13
2023-06-09T10:17:24.053Z,6.73
2023-06-09T10:19:53.997Z,6.33
2023-06-09T10:22:22.275Z,6.97
2023-06-09T10:24:50.165Z,7.67
2023-06-09T10:27:18.049Z,6.73
2023-06-09T10:29:49.759Z,6.47
2023-06-09T10:32:17.790Z,6.03
2023-06-09T10:34:49.530Z,6.73
2023-06-09T10:37:29.103Z,6.10
2023-06-09T10:40:07.659Z,5.70
2023-06-09T10:42:46.207Z,5.73
2023-06-09T10:45:17.115Z,6.30
2023-06-09T10:47:46.707Z,5.17
2023-06-09T10:50:27.922Z,8.60
2023-06-09T10:52:56.739Z,9.03
2023-06-09T10:55:25.673Z,5.63
2023-06-09T10:57:53.958Z,5.40
2023-06-09T11:00:24.170Z,5.77
2023-06-09T11:02:53.185Z,5.77
2023-06-09T11:05:22.380Z,5.20
2023-06-09T11:07:52.740Z,5.67
2023-06-09T11:10:29.631Z,5.77
2023-06-09T11:12:58.485Z,5.63
2023-06-09T11:15:58.908Z,5.77
2023-06-09T11:18:27.055Z,6.00
2023-06-09T11:21:18.182Z,5.60
2023-06-09T11:24:03.087Z,5.67
2023-06-09T11:26:32.950Z,6.70
2023-06-09T11:29:01.840Z,6.97
2023-06-09T11:31:31.130Z,5.73
2023-06-09T11:33:59.426Z,8.17
2023-06-09T11:36:31.105Z,4.93
2023-06-09T11:39:06.111Z,6.20
2023-06-09T11:41:34.543Z,4.90
2023-06-09T11:44:02.450Z,6.90
2023-06-09T11:46:36.906Z,7.13
2023-06-09T11:49:06.965Z,4.30
2023-06-09T11:51:56.232Z,5.00
2023-06-09T11:54:24.826Z,4.10
2023-06-09T11:56:52.925Z,4.17
2023-06-09T11:59:30.479Z,6.30
2023-06-09T12:02:12.821Z,6.87
2023-06-09T12:04:42.784Z,4.43
2023-06-09T12:07:15.099Z,4.20
2023-06-09T12:09:43.879Z,5.07
2023-06-09T12:12:12.357Z,9.60
2023-06-09T12:14:40.308Z,6.00
2023-06-09T12:17:08.403Z,5.13
2023-06-09T12:19:37.574Z,4.33
2023-06-09T12:22:05.544Z,4.10
2023-06-09T12:24:33.787Z,8.10
2023-06-09T12:27:12.745Z,5.80
2023-06-09T12:29:41.150Z,4.67
2023-06-09T12:32:11.782Z,8.33
2023-06-09T12:34:41.105Z,4.33
2023-06-09T12:37:09.058Z,4.30
2023-06-09T12:39:37.043Z,5.27
2023-06-09T12:42:15.070Z,5.83
2023-06-09T12:44:42.964Z,4.10
2023-06-09T12:47:17.406Z,5.27
2023-06-09T12:49:48.235Z,6.40
2023-06-09T12:52:16.111Z,3.77
2023-06-09T12:54:52.296Z,3.97
2023-06-09T12:57:26.095Z,6.90
2023-06-09T13:00:01.328Z,4.33
2023-06-09T13:02:35.808Z,4.93
2023-06-09T13:05:05.776Z,4.13
2023-06-09T13:07:33.547Z,5.30
2023-06-09T13:10:01.813Z,4.70
2023-06-09T13:12:29.642Z,8.40
2023-06-09T13:14:57.379Z,4.37
2023-06-09T13:17:25.148Z,4.23
2023-06-09T13:19:52.896Z,3.83
2023-06-09T13:22:22.040Z,4.33
2023-06-09T13:24:49.822Z,4.23
2023-06-09T13:27:17.628Z,3.97
2023-06-09T13:29:45.455Z,4.37
2023-06-09T13:32:13.539Z,5.67
2023-06-09T13:34:41.305Z,5.80
2023-06-09T13:37:09.082Z,5.17
2023-06-09T13:39:38.194Z,3.30
2023-06-09T13:42:07.600Z,4.23
2023-06-09T13:44:35.573Z,4.13
2023-06-09T13:47:03.355Z,3.90
2023-06-09T13:49:31.323Z,4.60
2023-06-09T13:51:59.209Z,4.10
2023-06-09T13:54:27.024Z,3.57
2023-06-09T13:56:56.172Z,4.17
2023-06-09T13:59:23.967Z,5.93
2023-06-09T14:01:51.800Z,6.23
2023-06-09T14:04:19.854Z,5.70
2023-06-09T14:06:47.882Z,5.03
2023-06-09T14:09:16.514Z,3.60
2023-06-09T14:11:44.233Z,3.73
2023-06-09T14:14:13.344Z,2.90
2023-06-09T14:16:42.977Z,3.40
2023-06-09T14:19:10.809Z,2.93
2023-06-09T14:21:38.517Z,3.23
2023-06-09T14:24:09.594Z,3.40
2023-06-09T14:26:37.803Z,3.30
2023-06-09T14:29:05.652Z,3.17
2023-06-09T14:31:34.793Z,3.53
2023-06-09T14:34:02.824Z,3.00
2023-06-09T14:36:30.632Z,3.00
2023-06-09T14:38:58.345Z,4.53
2023-06-09T14:41:26.723Z,3.60
2023-06-09T14:43:54.482Z,4.27
2023-06-09T14:46:22.306Z,4.57
2023-06-09T14:48:51.585Z,4.33
2023-06-09T14:51:19.341Z,5.70
2023-06-09T14:53:47.177Z,3.27
2023-06-09T14:56:15.627Z,3.67
2023-06-09T14:58:43.428Z,3.27
2023-06-09T15:01:11.334Z,3.70
2023-06-09T15:03:39.195Z,3.87
2023-06-09T15:06:11.001Z,2.83
2023-06-09T15:08:40.055Z,2.80
2023-06-09T15:11:07.861Z,3.30
2023-06-09T15:13:35.593Z,3.20
2023-06-09T15:16:03.422Z,2.97
2023-06-09T15:18:31.262Z,3.03
2023-06-09T15:20:59.189Z,2.97
2023-06-09T15:23:28.276Z,2.90
2023-06-09T15:25:56.147Z,3.03
2023-06-09T15:28:24.365Z,2.97
2023-06-09T15:30:52.163Z,2.93
2023-06-09T15:33:20.840Z,3.67
2023-06-09T15:35:50.851Z,5.23
2023-06-09T15:38:20.337Z,10.87
2023-06-09T15:40:51.148Z,3.43
2023-06-09T15:43:20.046Z,3.43
2023-06-09T15:45:49.092Z,3.57
2023-06-09T15:48:17.602Z,4.70
2023-06-09T15:50:46.788Z,2.60
2023-06-09T15:53:20.315Z,3.37
2023-06-09T15:55:50.192Z,4.10
2023-06-09T15:58:17.988Z,4.77
2023-06-09T16:00:46.696Z,4.03
2023-06-09T16:03:14.632Z,4.10
2023-06-09T16:05:43.491Z,4.03
2023-06-09T16:08:13.673Z,3.30
2023-06-09T16:10:43.055Z,4.70
2023-06-09T16:13:12.314Z,3.23
2023-06-09T16:15:41.472Z,3.00
2023-06-09T16:18:10.912Z,6.83
2023-06-09T16:20:42.883Z,2.70
2023-06-09T16:23:11.922Z,3.03
2023-06-09T16:25:40.101Z,3.50
2023-06-09T16:28:10.602Z,5.93
2023-06-09T16:30:40.522Z,6.27
2023-06-09T16:33:09.162Z,2.90
2023-06-09T16:35:37.212Z,2.87
2023-06-09T16:38:05.381Z,8.00
2023-06-09T16:40:33.558Z,2.50
2023-06-09T16:43:01.320Z,2.90
2023-06-09T16:45:29.639Z,4.17
2023-06-09T16:47:59.594Z,4.47
2023-06-09T16:50:27.580Z,4.17
2023-06-09T16:52:56.571Z,2.60
2023-06-09T16:55:25.538Z,3.03
2023-06-09T16:57:53.379Z,3.53
2023-06-09T17:00:23.181Z,4.10
2023-06-09T17:02:54.431Z,3.97
2023-06-09T17:05:25.111Z,2.93
2023-06-09T17:07:53.534Z,4.20
2023-06-09T17:10:21.372Z,3.00
2023-06-09T17:12:49.669Z,3.63
2023-06-09T17:15:17.587Z,3.03
2023-06-09T17:17:45.559Z,4.73
2023-06-09T17:20:14.493Z,2.83
2023-06-09T17:22:43.984Z,7.03
2023-06-09T17:25:12.018Z,3.20
2023-06-09T17:27:39.821Z,2.90
2023-06-09T17:30:14.205Z,4.10
2023-06-09T17:32:43.341Z,3.67
2023-06-09T17:35:11.931Z,2.60
2023-06-09T17:37:39.934Z,3.20
2023-06-09T17:40:11.053Z,7.07
2023-06-09T17:42:38.987Z,4.70
2023-06-09T17:45:08.522Z,2.30
2023-06-09T17:47:37.933Z,2.97
2023-06-09T17:50:07.224Z,4.33
2023-06-09T17:52:35.394Z,3.53
2023-06-09T17:55:04.342Z,3.97
2023-06-09T17:57:33.913Z,6.17
2023-06-09T18:00:05.659Z,2.87
2023-06-09T18:02:33.525Z,3.07
2023-06-09T18:05:01.523Z,3.20
2023-06-09T18:07:29.306Z,3.13
2023-06-09T18:09:57.093Z,3.87
2023-06-09T18:12:24.934Z,3.13
2023-06-09T18:14:53.991Z,2.60
2023-06-09T18:17:21.811Z,3.63
2023-06-09T18:19:49.632Z,2.73
2023-06-09T18:22:17.358Z,3.07
2023-06-09T18:24:45.142Z,3.57
2023-06-09T18:27:14.029Z,3.70
2023-06-09T18:29:41.826Z,3.27
2023-06-09T18:32:11.520Z,4.63
2023-06-09T18:34:40.224Z,3.37
2023-06-09T18:37:08.021Z,3.13
2023-06-09T18:39:35.763Z,5.23
2023-06-09T18:42:03.529Z,3.50
2023-06-09T18:44:31.251Z,4.20
2023-06-09T18:46:58.993Z,4.13
2023-06-09T18:49:28.221Z,2.80
2023-06-09T18:51:55.992Z,5.23
2023-06-09T18:54:23.686Z,3.80
2023-06-09T18:56:52.494Z,4.30
2023-06-09T18:59:20.779Z,4.03
2023-06-09T19:01:48.639Z,4.87
2023-06-09T19:04:16.375Z,3.43
2023-06-09T19:06:45.518Z,3.87
2023-06-09T19:09:13.338Z,3.63
2023-06-09T19:11:41.164Z,4.40
2023-06-09T19:14:09.160Z,3.03
2023-06-09T19:16:38.022Z,3.87
2023-06-09T19:19:06.002Z,3.70
2023-06-09T19:21:33.936Z,3.43
2023-06-09T19:24:03.059Z,5.13
2023-06-09T19:26:30.884Z,5.90
2023-06-09T19:28:58.649Z,6.50
2023-06-09T19:31:26.433Z,7.53
2023-06-09T19:33:54.191Z,4.00
2023-06-09T19:36:21.925Z,3.93
2023-06-09T19:38:49.662Z,3.67
2023-06-09T19:41:18.849Z,3.83
2023-06-09T19:43:46.639Z,6.10
2023-06-09T19:46:14.446Z,4.10
2023-06-09T19:48:42.723Z,3.73
2023-06-09T19:51:10.487Z,4.30
2023-06-09T19:53:38.552Z,5.00
2023-06-09T19:56:06.551Z,11.27
2023-06-09T19:58:35.661Z,5.90
2023-06-09T20:01:03.690Z,3.07
2023-06-09T20:03:32.694Z,3.87
2023-06-09T20:06:00.486Z,5.30
2023-06-09T20:08:28.441Z,5.70
2023-06-09T20:10:56.375Z,4.63
2023-06-09T20:13:24.179Z,4.70
2023-06-09T20:15:55.004Z,3.63
2023-06-09T20:18:22.862Z,4.57
2023-06-09T20:20:50.611Z,3.47
2023-06-09T20:23:22.519Z,3.77
2023-06-09T20:25:50.653Z,4.90
2023-06-09T20:28:18.486Z,4.13
2023-06-09T20:30:46.783Z,3.67
2023-06-09T20:33:16.076Z,6.03
2023-06-09T20:35:43.923Z,3.73
2023-06-09T20:38:11.739Z,4.43
2023-06-09T20:40:39.863Z,3.63
2023-06-09T20:43:08.557Z,3.63
2023-06-09T20:45:36.484Z,6.03
2023-06-09T20:48:04.901Z,3.90
2023-06-09T20:50:34.202Z,4.43
2023-06-09T20:53:02.012Z,3.20
2023-06-09T20:55:29.822Z,5.10
2023-06-09T20:57:58.923Z,3.70
2023-06-09T21:00:27.208Z,4.77
2023-06-09T21:02:55.089Z,4.03
2023-06-09T21:05:22.909Z,3.40
2023-06-09T21:07:52.160Z,3.37
2023-06-09T21:10:20.146Z,6.23
2023-06-09T21:12:47.985Z,5.00
2023-06-09T21:15:15.794Z,5.73
2023-06-09T21:17:43.649Z,3.30
2023-06-09T21:20:13.928Z,3.70
2023-06-09T21:22:42.561Z,6.00
2023-06-09T21:25:14.650Z,4.83
2023-06-09T21:27:42.907Z,6.20
2023-06-09T21:30:11.722Z,8.17
2023-06-09T21:32:39.929Z,5.17
2023-06-09T21:35:08.928Z,3.23
2023-06-09T21:37:36.931Z,3.67
2023-06-09T21:40:06.563Z,4.77
2023-06-09T21:42:35.758Z,4.63
2023-06-09T21:45:03.575Z,3.43
2023-06-09T21:47:31.357Z,3.37
2023-06-09T21:49:59.219Z,3.20
2023-06-09T21:52:27.042Z,4.53
2023-06-09T21:54:54.815Z,4.40
2023-06-09T21:57:22.574Z,5.43
2023-06-09T21:59:51.749Z,7.60
2023-06-09T22:02:19.493Z,5.63
2023-06-09T22:04:47.279Z,6.57
2023-06-09T22:07:15.111Z,3.00
2023-06-09T22:09:42.925Z,6.10
2023-06-09T22:12:11.262Z,3.17
2023-06-09T22:14:39.020Z,3.87
2023-06-09T22:17:09.695Z,2.80
2023-06-09T22:19:37.673Z,3.23
2023-06-09T22:22:06.981Z,4.90
2023-06-09T22:24:34.796Z,5.27
2023-06-09T22:27:04.910Z,3.07
2023-06-09T22:29:32.694Z,2.63
2023-06-09T22:32:00.506Z,4.10
2023-06-09T22:34:29.644Z,5.57
2023-06-09T22:36:57.627Z,3.63
2023-06-09T22:39:25.516Z,6.10
2023-06-09T22:41:53.284Z,5.10
2023-06-09T22:44:21.137Z,3.00
2023-06-09T22:46:49.901Z,2.40
2023-06-09T22:49:22.270Z,4.77
2023-06-09T22:51:51.771Z,2.93
2023-06-09T22:54:19.689Z,3.10
2023-06-09T22:56:47.464Z,3.70
2023-06-09T22:59:16.703Z,3.33
2023-06-09T23:01:44.608Z,4.40
2023-06-09T23:04:13.445Z,2.53
2023-06-09T23:06:42.005Z,4.57
2023-06-09T23:09:11.542Z,4.20
2023-06-09T23:11:40.159Z,4.33
2023-06-09T23:14:08.355Z,3.43
2023-06-09T23:16:36.177Z,3.17
2023-06-09T23:19:05.912Z,4.00
2023-06-09T23:21:36.146Z,5.80
2023-06-09T23:24:04.420Z,4.07
2023-06-09T23:26:34.469Z,5.17
2023-06-09T23:29:02.509Z,4.00
2023-06-09T23:31:30.333Z,3.57
2023-06-09T23:33:58.384Z,3.53
2023-06-09T23:36:28.973Z,6.43
2023-06-09T23:38:57.072Z,4.83
2023-06-09T23:41:26.831Z,4.47
2023-06-09T23:43:56.013Z,3.10
2023-06-09T23:46:23.879Z,6.63
2023-06-09T23:48:51.686Z,2.97
2023-06-09T23:51:19.448Z,5.57
2023-06-09T23:53:47.971Z,4.30
2023-06-09T23:56:16.178Z,5.37
2023-06-09T23:58:44.233Z,5.53
